createdAt,value
2018-07-22T00:01:19.301Z,7.17
2018-07-22T00:03:48.201Z,6.60
2018-07-22T00:06:17.103Z,6.87
2018-07-22T00:08:45.762Z,6.70
2018-07-22T00:11:14.499Z,7.00
2018-07-22T00:13:43.381Z,7.60
2018-07-22T00:16:12.425Z,7.30
2018-07-22T00:18:41.327Z,6.47
2018-07-22T00:21:10.229Z,7.00
2018-07-22T00:23:39.144Z,7.57
2018-07-22T00:26:08.056Z,7.43
2018-07-22T00:28:37.110Z,6.90
2018-07-22T00:31:06.212Z,6.90
2018-07-22T00:33:35.103Z,6.83
2018-07-22T00:36:04.127Z,7.17
2018-07-22T00:38:33.833Z,7.13
2018-07-22T00:41:02.801Z,7.00
2018-07-22T00:43:32.100Z,6.93
2018-07-22T00:46:01.011Z,6.93
2018-07-22T00:48:29.947Z,6.77
2018-07-22T00:50:58.908Z,6.20
2018-07-22T00:53:28.094Z,6.77
2018-07-22T00:55:56.768Z,6.73
2018-07-22T00:58:25.560Z,6.80
2018-07-22T01:00:54.441Z,6.70
2018-07-22T01:03:23.364Z,6.60
2018-07-22T01:05:52.225Z,6.57
2018-07-22T01:08:21.125Z,7.40
2018-07-22T01:10:49.832Z,6.53
2018-07-22T01:13:18.601Z,6.47
2018-07-22T01:15:47.501Z,6.93
2018-07-22T01:18:16.354Z,6.93
2018-07-22T01:20:45.292Z,7.47
2018-07-22T01:23:14.141Z,7.97
2018-07-22T01:25:43.042Z,15.20
2018-07-22T01:28:11.924Z,7.30
2018-07-22T01:30:40.810Z,6.97
2018-07-22T01:33:09.692Z,6.77
2018-07-22T01:35:38.608Z,6.70
2018-07-22T01:38:07.577Z,6.70
2018-07-22T01:40:36.453Z,7.10
2018-07-22T01:43:05.429Z,7.17
2018-07-22T01:45:34.282Z,6.80
2018-07-22T01:48:03.021Z,6.73
2018-07-22T01:50:31.856Z,7.33
2018-07-22T01:53:00.748Z,7.23
2018-07-22T01:55:29.696Z,7.10
2018-07-22T01:57:58.587Z,7.00
2018-07-22T02:00:27.312Z,6.87
2018-07-22T02:02:58.701Z,7.03
2018-07-22T02:05:28.010Z,6.67
2018-07-22T02:07:57.135Z,6.77
2018-07-22T02:10:25.989Z,7.20
2018-07-22T02:12:54.860Z,6.90
2018-07-22T02:15:23.738Z,7.57
2018-07-22T02:17:52.620Z,7.10
2018-07-22T02:20:21.501Z,7.30
2018-07-22T02:22:50.377Z,6.70
2018-07-22T02:25:19.262Z,7.23
2018-07-22T02:27:48.130Z,6.93
2018-07-22T02:30:16.997Z,7.03
2018-07-22T02:32:45.874Z,7.20
2018-07-22T02:35:14.761Z,7.70
2018-07-22T02:37:43.652Z,7.80
2018-07-22T02:40:12.545Z,7.03
2018-07-22T02:42:41.401Z,7.80
2018-07-22T02:45:10.304Z,7.13
2018-07-22T02:47:39.196Z,7.33
2018-07-22T02:50:08.086Z,7.30
2018-07-22T02:52:36.978Z,6.77
2018-07-22T02:55:06.077Z,7.23
2018-07-22T02:57:34.988Z,7.07
2018-07-22T03:00:04.662Z,7.57
2018-07-22T03:02:33.614Z,7.13
2018-07-22T03:05:02.560Z,7.10
2018-07-22T03:07:31.505Z,7.00
2018-07-22T03:10:00.446Z,8.10
2018-07-22T03:12:29.438Z,7.83
2018-07-22T03:14:58.351Z,7.17
2018-07-22T03:17:27.281Z,6.97
2018-07-22T03:19:56.129Z,7.23
2018-07-22T03:22:25.004Z,7.37
2018-07-22T03:24:53.915Z,7.57
2018-07-22T03:27:22.824Z,7.47
2018-07-22T03:29:51.693Z,7.00
2018-07-22T03:32:20.621Z,8.07
2018-07-22T03:34:49.492Z,8.07
2018-07-22T03:37:18.408Z,7.00
2018-07-22T03:39:47.284Z,7.80
2018-07-22T03:42:16.158Z,8.17
2018-07-22T03:44:45.052Z,7.47
2018-07-22T03:47:13.964Z,6.80
2018-07-22T03:49:42.821Z,6.73
2018-07-22T03:52:11.704Z,7.57
2018-07-22T03:54:40.600Z,7.37
2018-07-22T03:57:09.500Z,7.23
2018-07-22T03:59:38.380Z,7.17
2018-07-22T04:02:07.273Z,8.27
2018-07-22T04:04:36.172Z,7.87
2018-07-22T04:07:05.145Z,8.00
2018-07-22T04:09:33.969Z,7.23
2018-07-22T04:12:02.964Z,8.23
2018-07-22T04:14:31.873Z,8.50
2018-07-22T04:17:01.179Z,8.20
2018-07-22T04:19:30.057Z,7.63
2018-07-22T04:21:58.953Z,7.07
2018-07-22T04:24:27.924Z,7.50
2018-07-22T04:26:56.814Z,6.83
2018-07-22T04:29:25.708Z,8.30
2018-07-22T04:31:54.934Z,6.73
2018-07-22T04:34:23.813Z,7.33
2018-07-22T04:36:52.694Z,7.67
2018-07-22T04:39:21.602Z,6.90
2018-07-22T04:41:50.477Z,7.53
2018-07-22T04:44:19.460Z,8.83
2018-07-22T04:46:48.317Z,7.60
2018-07-22T04:49:17.221Z,7.53
2018-07-22T04:51:46.085Z,8.20
2018-07-22T04:54:15.013Z,7.73
2018-07-22T04:56:43.885Z,8.23
2018-07-22T04:59:12.741Z,8.37
2018-07-22T05:01:41.606Z,7.60
2018-07-22T05:04:10.472Z,8.00
2018-07-22T05:06:39.151Z,8.03
2018-07-22T05:09:09.626Z,7.97
2018-07-22T05:11:38.520Z,8.03
2018-07-22T05:14:07.440Z,7.80
2018-07-22T05:16:36.540Z,9.33
2018-07-22T05:19:05.646Z,8.63
2018-07-22T05:21:34.543Z,8.47
2018-07-22T05:24:03.448Z,8.77
2018-07-22T05:26:32.485Z,8.50
2018-07-22T05:29:01.511Z,9.07
2018-07-22T05:31:30.549Z,9.40
2018-07-22T05:33:59.496Z,8.90
2018-07-22T05:36:28.541Z,8.50
2018-07-22T05:38:57.553Z,9.03
2018-07-22T05:41:26.485Z,8.50
2018-07-22T05:43:55.361Z,8.93
2018-07-22T05:46:24.256Z,9.03
2018-07-22T05:48:53.142Z,8.70
2018-07-22T05:51:22.045Z,9.90
2018-07-22T05:53:50.931Z,8.93
2018-07-22T05:56:19.781Z,8.93
2018-07-22T05:58:48.637Z,8.70
2018-07-22T06:01:17.526Z,9.00
2018-07-22T06:03:46.412Z,8.77
2018-07-22T06:06:15.325Z,9.57
2018-07-22T06:08:44.214Z,10.20
2018-07-22T06:11:13.089Z,9.57
2018-07-22T06:13:41.985Z,9.37
2018-07-22T06:16:10.861Z,9.90
2018-07-22T06:18:39.756Z,9.53
2018-07-22T06:21:08.657Z,9.30
2018-07-22T06:23:37.516Z,10.00
2018-07-22T06:26:06.408Z,10.17
2018-07-22T06:28:35.744Z,10.50
2018-07-22T06:31:04.645Z,10.07
2018-07-22T06:33:33.511Z,9.77
2018-07-22T06:36:02.457Z,9.80
2018-07-22T06:38:31.393Z,10.53
2018-07-22T06:41:00.492Z,9.10
2018-07-22T06:43:29.470Z,9.03
2018-07-22T06:45:58.370Z,8.90
2018-07-22T06:48:27.140Z,8.67
2018-07-22T06:50:55.876Z,9.10
2018-07-22T06:53:24.786Z,8.97
2018-07-22T06:55:53.659Z,8.70
2018-07-22T06:58:22.541Z,7.93
2018-07-22T07:00:51.565Z,9.07
2018-07-22T07:03:20.496Z,8.60
2018-07-22T07:05:49.448Z,6.20
2018-07-22T07:08:18.636Z,8.60
2018-07-22T07:10:47.575Z,8.10
2018-07-22T07:13:16.467Z,8.17
2018-07-22T07:15:45.368Z,8.50
2018-07-22T07:18:14.271Z,7.50
2018-07-22T07:20:43.193Z,8.40
2018-07-22T07:23:12.106Z,8.80
2018-07-22T07:25:41.060Z,8.30
2018-07-22T07:28:09.763Z,8.33
2018-07-22T07:30:38.516Z,8.47
2018-07-22T07:33:07.618Z,8.10
2018-07-22T07:35:36.615Z,8.37
2018-07-22T07:38:05.807Z,8.57
2018-07-22T07:40:34.792Z,8.70
2018-07-22T07:43:04.075Z,6.00
2018-07-22T07:45:33.129Z,8.60
2018-07-22T07:48:02.127Z,6.30
2018-07-22T07:50:31.116Z,6.20
2018-07-22T07:53:00.109Z,9.37
2018-07-22T07:55:29.021Z,8.20
2018-07-22T07:57:57.832Z,7.97
2018-07-22T08:00:26.731Z,8.27
2018-07-22T08:02:55.746Z,9.37
2018-07-22T08:05:24.731Z,6.67
2018-07-22T08:07:53.637Z,5.87
2018-07-22T08:10:22.834Z,7.03
2018-07-22T08:12:51.753Z,6.10
2018-07-22T08:15:20.649Z,7.87
2018-07-22T08:17:49.744Z,8.03
2018-07-22T08:20:18.621Z,7.90
2018-07-22T08:22:47.500Z,8.37
2018-07-22T08:25:16.436Z,8.40
2018-07-22T08:27:45.382Z,5.80
2018-07-22T08:30:14.053Z,6.50
2018-07-22T08:32:42.817Z,7.30
2018-07-22T08:35:12.669Z,5.83
2018-07-22T08:37:41.660Z,6.03
2018-07-22T08:40:10.543Z,6.10
2018-07-22T08:42:39.448Z,5.50
2018-07-22T08:45:08.750Z,7.33
2018-07-22T08:47:37.866Z,6.93
2018-07-22T08:50:06.950Z,6.03
2018-07-22T08:52:36.176Z,5.80
2018-07-22T08:55:05.566Z,7.43
2018-07-22T08:57:34.645Z,6.03
2018-07-22T09:00:03.634Z,5.83
2018-07-22T09:02:32.569Z,6.23
2018-07-22T09:05:01.536Z,6.50
2018-07-22T09:07:30.588Z,6.33
2018-07-22T09:09:59.500Z,5.73
2018-07-22T09:12:28.392Z,6.20
2018-07-22T09:14:57.999Z,5.57
2018-07-22T09:17:26.885Z,5.73
2018-07-22T09:19:55.762Z,5.80
2018-07-22T09:22:24.646Z,5.57
2018-07-22T09:24:54.464Z,6.20
2018-07-22T09:27:23.319Z,6.43
2018-07-22T09:29:52.271Z,6.03
2018-07-22T09:32:21.157Z,6.20
2018-07-22T09:34:50.020Z,8.23
2018-07-22T09:37:18.949Z,5.97
2018-07-22T09:39:47.892Z,6.70
2018-07-22T09:42:16.785Z,5.90
2018-07-22T09:44:45.704Z,6.30
2018-07-22T09:47:14.617Z,5.80
2018-07-22T09:49:43.585Z,5.83
2018-07-22T09:52:12.396Z,5.73
2018-07-22T09:54:41.261Z,6.37
2018-07-22T09:57:10.167Z,6.63
2018-07-22T09:59:39.102Z,6.20
2018-07-22T10:02:08.252Z,6.03
2018-07-22T10:04:37.270Z,6.30
2018-07-22T10:07:06.857Z,6.10
2018-07-22T10:09:35.873Z,6.77
2018-07-22T10:12:04.826Z,6.43
2018-07-22T10:14:33.841Z,6.93
2018-07-22T10:17:02.737Z,6.90
2018-07-22T10:19:31.694Z,6.20
2018-07-22T10:22:00.689Z,6.10
2018-07-22T10:24:29.741Z,5.87
2018-07-22T10:26:58.712Z,7.10
2018-07-22T10:29:27.609Z,6.30
2018-07-22T10:31:56.508Z,6.43
2018-07-22T10:34:25.375Z,6.47
2018-07-22T10:36:54.274Z,6.80
2018-07-22T10:39:23.137Z,6.40
2018-07-22T10:41:52.013Z,6.10
2018-07-22T10:44:20.895Z,6.43
2018-07-22T10:46:49.760Z,6.10
2018-07-22T10:49:18.658Z,6.23
2018-07-22T10:51:47.509Z,6.33
2018-07-22T10:54:17.061Z,6.47
2018-07-22T10:56:45.958Z,7.00
2018-07-22T10:59:14.850Z,6.03
2018-07-22T11:01:43.717Z,6.07
2018-07-22T11:04:12.584Z,6.17
2018-07-22T11:06:41.437Z,7.23
2018-07-22T11:09:10.813Z,6.50
2018-07-22T11:11:39.723Z,6.43
2018-07-22T11:14:08.679Z,6.70
2018-07-22T11:16:37.538Z,7.50
2018-07-22T11:19:06.435Z,6.30
2018-07-22T11:21:35.294Z,6.03
2018-07-22T11:24:04.425Z,6.17
2018-07-22T11:26:33.140Z,5.87
2018-07-22T11:29:02.013Z,6.67
2018-07-22T11:31:31.095Z,5.90
2018-07-22T11:34:00.011Z,6.07
2018-07-22T11:36:28.897Z,6.77
2018-07-22T11:38:57.772Z,8.60
2018-07-22T11:41:26.655Z,6.80
2018-07-22T11:43:55.557Z,7.00
2018-07-22T11:46:24.428Z,6.53
2018-07-22T11:48:53.416Z,4.80
2018-07-22T11:51:22.285Z,6.80
2018-07-22T11:53:51.193Z,6.13
2018-07-22T11:56:20.132Z,6.93
2018-07-22T11:58:49.186Z,6.07
2018-07-22T12:01:18.363Z,5.90
2018-07-22T12:03:47.255Z,5.77
2018-07-22T12:06:16.231Z,5.97
2018-07-22T12:08:45.121Z,6.30
2018-07-22T12:11:14.037Z,5.53
2018-07-22T12:13:42.924Z,6.10
2018-07-22T12:16:11.969Z,6.60
2018-07-22T12:18:40.948Z,7.30
2018-07-22T12:21:09.854Z,6.30
2018-07-22T12:23:38.765Z,4.63
2018-07-22T12:26:07.661Z,6.43
2018-07-22T12:28:36.899Z,6.37
2018-07-22T12:31:05.820Z,6.10
2018-07-22T12:33:34.718Z,9.70
2018-07-22T12:36:03.769Z,5.93
2018-07-22T12:38:32.888Z,5.97
2018-07-22T12:41:01.829Z,6.30
2018-07-22T12:43:31.954Z,3.60
2018-07-22T12:46:00.905Z,6.60
2018-07-22T12:48:29.894Z,6.30
2018-07-22T12:50:58.865Z,6.20
2018-07-22T12:53:27.767Z,5.33
2018-07-22T12:55:56.910Z,6.50
2018-07-22T12:58:25.817Z,5.73
2018-07-22T13:00:54.672Z,6.27
2018-07-22T13:03:23.546Z,5.53
2018-07-22T13:05:52.425Z,6.27
2018-07-22T13:08:21.276Z,6.87
2018-07-22T13:10:50.157Z,6.07
2018-07-22T13:13:19.002Z,4.17
2018-07-22T13:15:48.005Z,6.60
2018-07-22T13:18:16.918Z,6.37
2018-07-22T13:20:45.846Z,5.87
2018-07-22T13:23:14.869Z,6.40
2018-07-22T13:25:43.839Z,6.07
2018-07-22T13:28:12.707Z,6.23
2018-07-22T13:30:41.591Z,5.10
2018-07-22T13:33:10.547Z,5.47
2018-07-22T13:35:39.410Z,5.97
2018-07-22T13:38:08.426Z,7.40
2018-07-22T13:40:37.360Z,6.83
2018-07-22T13:43:06.613Z,5.73
2018-07-22T13:45:35.631Z,3.73
2018-07-22T13:48:04.882Z,5.70
2018-07-22T13:50:33.773Z,5.43
2018-07-22T13:53:02.782Z,4.57
2018-07-22T13:55:32.168Z,7.00
2018-07-22T13:58:01.064Z,6.60
2018-07-22T14:00:30.737Z,6.30
2018-07-22T14:03:00.452Z,7.43
2018-07-22T14:05:29.422Z,5.60
2018-07-22T14:07:58.440Z,6.50
2018-07-22T14:10:27.325Z,6.50
2018-07-22T14:12:56.183Z,6.30
2018-07-22T14:15:25.109Z,6.57
2018-07-22T14:17:54.332Z,6.77
2018-07-22T14:20:23.145Z,5.77
2018-07-22T14:22:52.056Z,6.90
2018-07-22T14:25:20.933Z,6.90
2018-07-22T14:27:49.947Z,5.27
2018-07-22T14:30:18.773Z,6.30
2018-07-22T14:32:47.653Z,6.80
2018-07-22T14:35:16.527Z,4.40
2018-07-22T14:37:45.688Z,6.63
2018-07-22T14:40:14.668Z,6.80
2018-07-22T14:42:44.683Z,6.20
2018-07-22T14:45:13.571Z,6.40
2018-07-22T14:47:42.483Z,4.93
2018-07-22T14:50:11.380Z,6.50
2018-07-22T14:52:40.345Z,6.40
2018-07-22T14:55:09.289Z,6.40
2018-07-22T14:57:38.228Z,6.20
2018-07-22T15:00:07.532Z,7.37
2018-07-22T15:02:36.740Z,6.13
2018-07-22T15:05:05.648Z,7.23
2018-07-22T15:07:34.501Z,7.07
2018-07-22T15:10:03.554Z,3.73
2018-07-22T15:12:32.509Z,6.80
2018-07-22T15:15:01.502Z,7.17
2018-07-22T15:17:30.497Z,6.57
2018-07-22T15:19:59.448Z,7.07
2018-07-22T15:22:28.462Z,7.30
2018-07-22T15:24:57.513Z,6.60
2018-07-22T15:27:26.550Z,6.60
2018-07-22T15:29:55.453Z,7.13
2018-07-22T15:32:24.349Z,7.10
2018-07-22T15:34:53.258Z,3.97
2018-07-22T15:37:22.168Z,4.77
2018-07-22T15:39:51.040Z,5.83
2018-07-22T15:42:19.932Z,4.20
2018-07-22T15:44:48.904Z,6.27
2018-07-22T15:47:17.760Z,6.07
2018-07-22T15:49:46.658Z,4.33
2018-07-22T15:52:15.591Z,6.30
2018-07-22T15:54:44.480Z,6.70
2018-07-22T15:57:13.356Z,6.07
2018-07-22T15:59:42.474Z,6.10
2018-07-22T16:02:11.360Z,5.63
2018-07-22T16:04:40.305Z,2.80
2018-07-22T16:07:09.241Z,3.13
2018-07-22T16:09:38.208Z,6.23
2018-07-22T16:12:07.153Z,7.30
2018-07-22T16:14:36.134Z,6.30
2018-07-22T16:17:05.245Z,6.80
2018-07-22T16:19:34.951Z,6.53
2018-07-22T16:22:03.907Z,6.60
2018-07-22T16:24:32.873Z,4.40
2018-07-22T16:27:01.829Z,6.97
2018-07-22T16:29:30.892Z,6.60
2018-07-22T16:31:59.944Z,6.50
2018-07-22T16:34:29.116Z,6.90
2018-07-22T16:36:58.246Z,5.60
2018-07-22T16:39:27.162Z,6.30
2018-07-22T16:41:56.136Z,7.17
2018-07-22T16:44:25.055Z,5.87
2018-07-22T16:46:53.968Z,2.30
2018-07-22T16:49:22.618Z,6.13
2018-07-22T16:51:51.431Z,5.70
2018-07-22T16:54:20.301Z,4.97
2018-07-22T16:56:49.193Z,5.20
2018-07-22T16:59:18.064Z,4.40
2018-07-22T17:01:46.977Z,4.20
2018-07-22T17:04:15.888Z,3.43
2018-07-22T17:06:44.804Z,6.57
2018-07-22T17:09:13.700Z,5.83
2018-07-22T17:11:42.569Z,6.23
2018-07-22T17:14:11.504Z,6.60
2018-07-22T17:16:40.389Z,5.87
2018-07-22T17:19:09.280Z,5.77
2018-07-22T17:21:38.169Z,5.83
2018-07-22T17:24:07.474Z,6.43
2018-07-22T17:26:36.384Z,6.30
2018-07-22T17:29:05.397Z,6.60
2018-07-22T17:31:34.372Z,6.17
2018-07-22T17:34:04.569Z,2.70
2018-07-22T17:36:33.501Z,6.40
2018-07-22T17:39:02.474Z,6.23
2018-07-22T17:41:31.376Z,5.70
2018-07-22T17:44:00.293Z,6.07
2018-07-22T17:46:30.262Z,5.00
2018-07-22T17:48:59.185Z,5.33
2018-07-22T17:51:28.164Z,6.20
2018-07-22T17:53:57.051Z,5.03
2018-07-22T17:56:25.755Z,5.87
2018-07-22T17:58:54.524Z,5.80
2018-07-22T18:01:23.421Z,4.63
2018-07-22T18:03:52.304Z,4.97
2018-07-22T18:06:21.192Z,6.10
2018-07-22T18:08:50.156Z,5.77
2018-07-22T18:11:19.103Z,6.00
2018-07-22T18:13:47.968Z,3.27
2018-07-22T18:16:16.898Z,6.37
2018-07-22T18:18:45.810Z,5.20
2018-07-22T18:21:14.692Z,2.90
2018-07-22T18:23:43.611Z,3.83
2018-07-22T18:26:12.540Z,5.77
2018-07-22T18:28:41.458Z,5.57
2018-07-22T18:31:10.336Z,4.40
2018-07-22T18:33:39.879Z,3.33
2018-07-22T18:36:08.794Z,4.07
2018-07-22T18:38:38.352Z,2.40
2018-07-22T18:41:07.231Z,3.80
2018-07-22T18:43:36.113Z,5.53
2018-07-22T18:46:05.040Z,5.57
2018-07-22T18:48:34.063Z,4.00
2018-07-22T18:51:03.174Z,4.00
2018-07-22T18:53:32.094Z,5.87
2018-07-22T18:56:01.103Z,5.50
2018-07-22T18:58:30.223Z,4.93
2018-07-22T19:00:59.136Z,4.93
2018-07-22T19:03:28.055Z,4.23
2018-07-22T19:05:56.960Z,4.40
2018-07-22T19:08:25.916Z,5.10
2018-07-22T19:10:54.832Z,5.10
2018-07-22T19:13:23.706Z,5.07
2018-07-22T19:15:52.606Z,4.33
2018-07-22T19:18:21.487Z,4.90
2018-07-22T19:20:50.363Z,4.43
2018-07-22T19:23:19.256Z,4.80
2018-07-22T19:25:48.169Z,4.80
2018-07-22T19:28:17.073Z,4.90
2018-07-22T19:30:45.968Z,4.93
2018-07-22T19:33:14.819Z,3.90
2018-07-22T19:35:43.661Z,4.87
2018-07-22T19:38:12.735Z,3.40
2018-07-22T19:40:41.721Z,4.83
2018-07-22T19:43:10.600Z,4.03
2018-07-22T19:45:39.457Z,3.70
2018-07-22T19:48:08.314Z,3.70
2018-07-22T19:50:37.180Z,3.30
2018-07-22T19:53:06.040Z,3.20
2018-07-22T19:55:34.905Z,3.30
2018-07-22T19:58:03.829Z,3.63
2018-07-22T20:00:32.726Z,3.80
2018-07-22T20:03:01.560Z,3.87
2018-07-22T20:05:30.448Z,3.00
2018-07-22T20:07:59.583Z,3.20
2018-07-22T20:10:29.111Z,4.70
2018-07-22T20:12:58.006Z,3.50
2018-07-22T20:15:26.916Z,3.50
2018-07-22T20:17:55.780Z,3.87
2018-07-22T20:20:24.620Z,4.80
2018-07-22T20:22:53.550Z,3.57
2018-07-22T20:25:22.472Z,4.40
2018-07-22T20:27:51.324Z,3.60
2018-07-22T20:30:20.221Z,3.30
2018-07-22T20:32:49.129Z,3.33
2018-07-22T20:35:18.054Z,3.03
2018-07-22T20:37:47.061Z,3.13
2018-07-22T20:40:15.982Z,3.10
2018-07-22T20:42:44.856Z,3.10
2018-07-22T20:45:13.808Z,3.30
2018-07-22T20:47:42.681Z,3.60
2018-07-22T20:50:11.651Z,2.60
2018-07-22T20:52:40.552Z,2.77
2018-07-22T20:55:09.828Z,3.00
2018-07-22T20:57:39.049Z,3.37
2018-07-22T21:00:08.314Z,3.13
2018-07-22T21:02:37.441Z,3.40
2018-07-22T21:05:06.619Z,3.43
2018-07-22T21:07:35.748Z,3.03
2018-07-22T21:10:04.778Z,3.20
2018-07-22T21:12:50.442Z,2.93
2018-07-22T21:15:19.702Z,3.00
2018-07-22T21:17:49.724Z,2.83
2018-07-22T21:20:19.542Z,3.07
2018-07-22T21:22:48.424Z,3.43
2018-07-22T21:25:17.860Z,3.37
2018-07-22T21:27:46.926Z,3.63
2018-07-22T21:30:16.238Z,3.50
2018-07-22T21:32:45.148Z,3.47
2018-07-22T21:35:14.029Z,3.13
2018-07-22T21:37:42.936Z,3.00
2018-07-22T21:40:11.902Z,3.60
2018-07-22T21:42:40.856Z,3.47
2018-07-22T21:45:09.753Z,3.20
2018-07-22T21:47:38.712Z,3.60
2018-07-22T21:50:08.121Z,3.37
2018-07-22T21:52:37.115Z,3.33
2018-07-22T21:55:06.270Z,3.27
2018-07-22T21:57:35.364Z,3.70
2018-07-22T22:00:11.949Z,3.83
2018-07-22T22:02:40.855Z,3.40
2018-07-22T22:05:09.761Z,3.50
2018-07-22T22:07:38.669Z,3.80
2018-07-22T22:10:07.574Z,3.50
2018-07-22T22:12:36.457Z,3.37
2018-07-22T22:15:09.698Z,3.30
2018-07-22T22:17:38.684Z,3.60
2018-07-22T22:20:07.534Z,3.50
2018-07-22T22:22:36.554Z,3.60
2018-07-22T22:25:05.676Z,3.40
2018-07-22T22:27:34.843Z,3.30
2018-07-22T22:30:04.053Z,3.17
2018-07-22T22:32:33.019Z,3.50
2018-07-22T22:35:01.982Z,3.37
2018-07-22T22:37:30.943Z,3.73
2018-07-22T22:39:59.974Z,3.40
2018-07-22T22:42:28.881Z,3.40
2018-07-22T22:44:57.778Z,3.37
2018-07-22T22:47:26.655Z,3.37
2018-07-22T22:49:55.537Z,3.63
2018-07-22T22:52:24.419Z,3.50
2018-07-22T22:54:53.413Z,3.57
2018-07-22T22:57:22.176Z,3.87
2018-07-22T22:59:52.022Z,3.53
2018-07-22T23:02:20.880Z,3.47
2018-07-22T23:04:49.729Z,3.40
2018-07-22T23:07:18.620Z,3.77
2018-07-22T23:09:47.458Z,3.50
2018-07-22T23:12:16.341Z,3.60
2018-07-22T23:14:45.233Z,3.40
2018-07-22T23:17:14.105Z,3.40
2018-07-22T23:19:42.987Z,4.13
2018-07-22T23:22:11.853Z,4.33
2018-07-22T23:24:40.764Z,3.53
2018-07-22T23:27:09.649Z,4.00
2018-07-22T23:29:38.604Z,3.90
2018-07-22T23:32:07.476Z,3.97
2018-07-22T23:34:37.185Z,3.50
2018-07-22T23:37:06.075Z,4.10
2018-07-22T23:39:35.091Z,4.13
2018-07-22T23:42:03.955Z,3.77
2018-07-22T23:44:32.899Z,4.60
2018-07-22T23:47:01.786Z,4.30
2018-07-22T23:49:30.702Z,4.73
2018-07-22T23:51:59.672Z,4.57
2018-07-22T23:54:29.025Z,4.07
2018-07-22T23:56:57.869Z,4.17
2018-07-22T23:59:26.757Z,4.50
